Weather at Turku University Central Hospital Heliport

Public forecast

Using degrees Celsius for public forecast. Weather courtesy of forecast.io.

Closest aviation weather report (METAR) to Turku University Central Hospital Heliport

Closest report is Turku Airport, 3.9 nm (7.2 km) NNW.

2024/06/19 04:50 (retrieved 28 minutes ago)

EFTU 190450Z AUTO 22006KT 180V250 CAVOK 15/11 Q1007

Closest aviation forecast (TAF) to Turku University Central Hospital Heliport

Forecast is more than 12 hours old.

Closest forecast is Ämari Air Base, 92.0 nm (170.3 km) SE.

2024/06/18 12:58 (retrieved 16 hours ago)

TAF EEEI 181130Z 1812/1912 30010KT 9999 FEW025 PROB30 TEMPO 1812/1814 FEW030CB BECMG 1820/1822 20008KT PROB40 TEMPO 1900/1903 1500 BR BKN003 PROB30 TEMPO 1908/1911 5000 SHRA BKN008 FEW025CB